Time;durP1;ratioP1;P1;durP2;ratioP2;P2;SDS_P1;SDS_P2;PMS_P1;PMS_P2;Temp;Humidity;BMP_temperature;BMP_pressure;BME280_temperature;BME280_humidity;BME280_pressure;Samples;Min_cycle;Max_cycle;Signal;HPM_P1;HPM_P2
2021/07/12 00:01:21;;;;;;;12.00;11.00;;;14.40;99.90;;;;;;6310692;22;20641;-82
2021/07/12 00:04:14;;;;;;;13.10;12.20;;;14.40;99.90;;;;;;6309972;22;20554;-82
2021/07/12 00:07:13;;;;;;;12.60;11.60;;;14.40;99.90;;;;;;6310536;22;20247;-82
2021/07/12 00:10:26;;;;;;;13.13;12.13;;;14.40;99.90;;;;;;6265448;22;20203;-82
2021/07/12 00:13:02;;;;;;;12.13;11.33;;;14.40;99.90;;;;;;6300644;22;20689;-82
2021/07/12 00:16:21;;;;;;;;;;;;;;;;;;;;;
2021/07/12 00:18:55;;;;;;;12.93;11.83;;;14.30;99.90;;;;;;6310159;22;20264;-82
2021/07/12 00:21:31;;;;;;;12.00;11.17;;;14.30;99.90;;;;;;6310179;22;20583;-82
2021/07/12 00:24:06;;;;;;;12.50;11.53;;;14.20;99.90;;;;;;6309450;22;20177;-82
2021/07/12 00:26:49;;;;;;;12.20;11.40;;;14.20;99.90;;;;;;6310378;22;20553;-82
2021/07/12 00:30:06;;;;;;;12.77;11.77;;;14.20;99.90;;;;;;6337909;22;20199;-82
2021/07/12 00:32:45;;;;;;;12.30;11.50;;;14.20;99.90;;;;;;6307546;22;20174;-82
2021/07/12 00:35:36;;;;;;;7.60;6.47;;;14.20;99.90;;;;;;6304064;22;20172;-82
2021/07/12 00:38:13;;;;;;;7.67;6.60;;;14.10;99.90;;;;;;6309696;22;20184;-82
2021/07/12 00:41:05;;;;;;;6.63;6.13;;;14.10;99.90;;;;;;6310578;22;20195;-82
2021/07/12 00:43:35;;;;;;;7.30;6.60;;;14.00;99.90;;;;;;6310576;22;20208;-82
2021/07/12 00:46:13;;;;;;;7.17;6.57;;;14.00;99.90;;;;;;6336067;22;20207;-82
2021/07/12 00:48:54;;;;;;;8.00;7.20;;;14.10;99.90;;;;;;6335752;22;20168;-82
2021/07/12 00:51:34;;;;;;;7.40;6.70;;;14.00;99.90;;;;;;6310294;22;20598;-82
2021/07/12 00:54:15;;;;;;;7.17;6.57;;;13.90;99.90;;;;;;6338271;22;20152;-82
2021/07/12 00:56:59;;;;;;;8.20;6.60;;;13.90;99.90;;;;;;6309943;22;20187;-82
2021/07/12 00:59:33;;;;;;;7.23;6.60;;;13.90;99.90;;;;;;6313262;22;20188;-83
2021/07/12 01:02:24;;;;;;;6.73;6.13;;;13.90;99.90;;;;;;6318707;22;20228;-83
2021/07/12 01:05:07;;;;;;;7.00;6.40;;;13.80;99.90;;;;;;6317530;22;20183;-83
2021/07/12 01:07:42;;;;;;;7.53;6.40;;;13.80;99.90;;;;;;6342035;22;20210;-83
2021/07/12 01:10:22;;;;;;;7.03;6.40;;;13.80;99.90;;;;;;6315103;22;20198;-83
2021/07/12 01:13:00;;;;;;;7.10;6.50;;;13.80;99.90;;;;;;6315648;22;20227;-83
2021/07/12 01:15:33;;;;;;;8.07;6.60;;;13.80;99.90;;;;;;6315869;22;20186;-83
2021/07/12 01:18:27;;;;;;;7.67;6.57;;;13.80;99.90;;;;;;6341809;22;20184;-83
2021/07/12 01:21:38;;;;;;;7.43;6.83;;;13.70;99.90;;;;;;6342865;22;20157;-83
2021/07/12 01:24:49;;;;;;;7.30;6.70;;;13.70;99.90;;;;;;6336022;22;20221;-84
2021/07/12 01:27:58;;;;;;;6.87;6.23;;;13.70;99.90;;;;;;6320909;22;20163;-83
2021/07/12 01:30:57;;;;;;;7.90;7.17;;;13.60;99.90;;;;;;6313934;22;20243;-82
2021/07/12 01:33:33;;;;;;;10.20;6.40;;;13.50;99.90;;;;;;6314141;22;20553;-81
2021/07/12 01:36:03;;;;;;;7.03;6.33;;;13.60;99.90;;;;;;6313579;22;20176;-83
2021/07/12 01:38:41;;;;;;;6.63;6.13;;;13.50;99.90;;;;;;6339351;22;20166;-83
2021/07/12 01:41:20;;;;;;;6.80;6.13;;;13.50;99.90;;;;;;6313369;22;20189;-82
2021/07/12 01:44:00;;;;;;;7.50;6.90;;;13.50;99.90;;;;;;6313405;22;20170;-83
2021/07/12 01:46:32;;;;;;;7.20;6.50;;;13.40;99.90;;;;;;6339295;22;20225;-83
2021/07/12 01:49:08;;;;;;;6.63;6.13;;;13.40;99.90;;;;;;6314349;22;20189;-82
2021/07/12 01:51:45;;;;;;;7.07;6.57;;;13.30;99.90;;;;;;6315300;22;20162;-83
2021/07/12 01:54:29;;;;;;;6.80;6.07;;;13.30;99.90;;;;;;6314897;22;20576;-82
2021/07/12 01:57:08;;;;;;;8.43;6.17;;;13.20;99.90;;;;;;6314191;22;20189;-82
2021/07/12 01:59:41;;;;;;;7.53;6.63;;;13.20;99.90;;;;;;6314636;22;20197;-83
2021/07/12 02:02:14;;;;;;;7.20;6.50;;;13.20;99.90;;;;;;6315071;22;20166;-83
2021/07/12 02:04:52;;;;;;;7.67;7.00;;;13.20;99.90;;;;;;6313826;22;20184;-82
2021/07/12 02:07:24;;;;;;;6.60;6.10;;;13.10;99.90;;;;;;6313727;22;20193;-82
2021/07/12 02:09:57;;;;;;;7.67;7.07;;;13.10;99.90;;;;;;6313566;22;20221;-83
2021/07/12 02:12:32;;;;;;;13.27;12.47;;;13.10;99.90;;;;;;6313734;22;20250;-85
2021/07/12 02:15:02;;;;;;;13.07;12.17;;;13.10;99.90;;;;;;6314086;22;20177;-83
2021/07/12 02:17:49;;;;;;;13.30;12.17;;;13.00;99.90;;;;;;6314458;22;20186;-83
2021/07/12 02:20:41;;;;;;;12.80;12.00;;;13.00;99.90;;;;;;6313828;22;20198;-82
2021/07/12 02:23:10;;;;;;;12.50;11.63;;;13.10;99.90;;;;;;6313826;22;20257;-82
2021/07/12 02:25:52;;;;;;;13.20;12.33;;;13.00;99.90;;;;;;6313945;22;20166;-83
2021/07/12 02:28:47;;;;;;;12.13;11.33;;;13.00;99.90;;;;;;6313090;22;20160;-82
2021/07/12 02:31:20;;;;;;;12.50;11.70;;;13.00;99.90;;;;;;6313626;22;20263;-83
2021/07/12 02:33:50;;;;;;;12.47;11.67;;;13.00;99.90;;;;;;6311961;22;20238;-81
2021/07/12 02:36:20;;;;;;;12.33;11.53;;;13.00;99.90;;;;;;6312198;22;20581;-81
2021/07/12 02:38:52;;;;;;;12.60;11.80;;;13.00;99.90;;;;;;6339102;22;20178;-80
2021/07/12 02:41:21;;;;;;;12.70;11.90;;;12.90;99.90;;;;;;6312466;22;20241;-82
2021/07/12 03:10:30;;;;;;;12.73;11.93;;;12.80;99.90;;;;;;6271881;22;20211;-80
2021/07/12 03:13:00;;;;;;;13.43;12.63;;;12.70;99.90;;;;;;6310745;22;20166;-78
2021/07/12 03:15:32;;;;;;;13.63;12.63;;;12.80;99.90;;;;;;6310998;22;20240;-80
2021/07/12 03:18:03;;;;;;;12.20;11.40;;;12.70;99.90;;;;;;6310712;22;20196;-80
2021/07/12 03:20:32;;;;;;;12.00;11.30;;;12.80;99.90;;;;;;6336517;22;20190;-77
2021/07/12 03:23:02;;;;;;;12.10;11.37;;;12.80;99.90;;;;;;6309145;22;20173;-79
2021/07/12 03:25:34;;;;;;;12.50;11.63;;;12.80;99.90;;;;;;6309308;22;20165;-80
2021/07/12 03:28:04;;;;;;;12.90;12.10;;;12.70;99.90;;;;;;6308663;22;20244;-81
2021/07/12 03:30:35;;;;;;;13.40;12.50;;;12.60;99.90;;;;;;6282345;22;20644;-75
2021/07/12 03:33:04;;;;;;;12.80;11.90;;;12.60;99.90;;;;;;6274617;22;20163;-76
2021/07/12 03:35:37;;;;;;;12.80;12.00;;;12.70;99.90;;;;;;6272765;22;20167;-75
2021/07/12 03:38:04;;;;;;;13.13;12.30;;;12.60;99.90;;;;;;6276250;22;20697;-75
2021/07/12 03:40:33;;;;;;;12.43;11.63;;;12.60;99.90;;;;;;6274653;22;20198;-75
2021/07/12 03:43:01;;;;;;;12.73;11.83;;;12.70;99.90;;;;;;6275266;22;20206;-75
2021/07/12 03:45:31;;;;;;;13.10;12.20;;;12.60;99.90;;;;;;6275090;22;20167;-75
2021/07/12 03:47:58;;;;;;;12.67;11.77;;;12.60;99.90;;;;;;6274647;22;20200;-75
2021/07/12 03:50:28;;;;;;;12.23;11.43;;;12.60;99.90;;;;;;6275000;22;20195;-75
2021/07/12 03:53:01;;;;;;;12.83;11.97;;;12.60;99.90;;;;;;6276774;22;20204;-77
2021/07/12 03:55:30;;;;;;;12.67;11.87;;;12.70;99.90;;;;;;6276438;22;20168;-74
2021/07/12 03:58:00;;;;;;;12.73;11.93;;;12.60;99.90;;;;;;6276233;22;20510;-77
2021/07/12 04:00:29;;;;;;;12.97;12.17;;;12.60;99.90;;;;;;6276453;22;20188;-78
2021/07/12 04:02:56;;;;;;;13.47;12.47;;;12.70;99.90;;;;;;6275096;22;20223;-77
2021/07/12 04:05:25;;;;;;;13.67;12.77;;;12.70;99.90;;;;;;6276265;22;20163;-77
2021/07/12 04:07:53;;;;;;;13.00;12.20;;;12.70;99.90;;;;;;6276392;22;20163;-78
2021/07/12 04:10:20;;;;;;;13.43;12.63;;;12.80;99.90;;;;;;6274502;22;20196;-78
2021/07/12 04:12:48;;;;;;;13.40;12.60;;;12.80;99.90;;;;;;6276429;22;20225;-78
2021/07/12 04:15:17;;;;;;;12.93;12.13;;;12.80;99.90;;;;;;6274635;22;20226;-77
2021/07/12 04:17:45;;;;;;;13.23;12.43;;;12.90;99.90;;;;;;6275831;22;20190;-78
2021/07/12 04:20:13;;;;;;;13.13;12.37;;;12.90;99.90;;;;;;6274595;22;20197;-77
2021/07/12 04:22:40;;;;;;;13.20;12.40;;;12.90;99.90;;;;;;6276305;22;20169;-76
2021/07/12 04:25:09;;;;;;;12.70;12.00;;;13.00;99.90;;;;;;6276567;22;20166;-77
2021/07/12 04:27:37;;;;;;;13.40;12.50;;;13.10;99.90;;;;;;6275011;22;20670;-77
2021/07/12 04:30:05;;;;;;;13.17;12.43;;;13.10;99.90;;;;;;6273438;22;20206;-77
2021/07/12 04:32:34;;;;;;;12.43;11.73;;;13.10;99.90;;;;;;6276068;22;20186;-78
2021/07/12 04:35:01;;;;;;;12.20;11.50;;;13.20;99.90;;;;;;6274028;22;20188;-77
2021/07/12 04:37:27;;;;;;;12.50;11.80;;;13.20;99.90;;;;;;6275886;22;20647;-78
2021/07/12 04:39:54;;;;;;;12.70;12.00;;;13.30;99.90;;;;;;6276045;22;20208;-77
2021/07/12 04:42:21;;;;;;;12.63;11.90;;;13.40;99.90;;;;;;6275656;22;20640;-77
2021/07/12 04:44:48;;;;;;;12.67;11.97;;;13.50;99.90;;;;;;6274333;22;20169;-78
2021/07/12 04:47:15;;;;;;;12.60;11.80;;;13.70;99.90;;;;;;6275969;22;20166;-78
2021/07/12 04:49:43;;;;;;;6.73;6.23;;;13.80;99.90;;;;;;6274931;22;20197;-78
2021/07/12 04:52:10;;;;;;;13.17;12.40;;;14.00;99.90;;;;;;6276185;22;20172;-77
2021/07/12 04:54:36;;;;;;;8.40;7.90;;;14.20;99.90;;;;;;6276548;22;20166;-78
2021/07/12 04:57:04;;;;;;;5.90;5.50;;;14.50;99.90;;;;;;6275692;22;20166;-77
2021/07/12 04:59:37;;;;;;;9.03;8.43;;;14.70;99.90;;;;;;6274754;22;20263;-77
2021/07/12 05:02:05;;;;;;;10.63;10.00;;;15.00;99.90;;;;;;6300603;22;20162;-78
2021/07/12 05:04:32;;;;;;;9.67;9.07;;;15.30;99.90;;;;;;6274383;22;20175;-78
2021/07/12 05:07:00;;;;;;;5.43;5.03;;;15.50;99.90;;;;;;6274051;22;20559;-77
2021/07/12 05:09:27;;;;;;;7.23;6.73;;;15.60;99.90;;;;;;6275958;22;20185;-78
2021/07/12 05:11:54;;;;;;;8.63;8.03;;;15.80;99.90;;;;;;6275826;22;20169;-76
2021/07/12 05:14:23;;;;;;;12.33;11.63;;;16.00;99.90;;;;;;6279043;22;20236;-79
2021/07/12 05:16:50;;;;;;;10.27;9.67;;;16.00;99.90;;;;;;6277852;22;20245;-79
2021/07/12 05:19:18;;;;;;;10.17;9.47;;;16.00;99.90;;;;;;6304126;22;20204;-80
2021/07/12 05:21:45;;;;;;;9.33;8.60;;;16.10;99.90;;;;;;6279897;22;20486;-79
2021/07/12 05:24:14;;;;;;;12.73;11.83;;;16.20;99.90;;;;;;6305574;22;20174;-80
2021/07/12 05:26:41;;;;;;;10.17;9.57;;;16.40;99.90;;;;;;6278735;22;20190;-79
2021/07/12 05:29:08;;;;;;;4.93;4.63;;;16.60;99.90;;;;;;6281817;22;20160;-79
2021/07/12 05:31:35;;;;;;;5.10;4.70;;;16.60;99.90;;;;;;6284640;22;20171;-79
2021/07/12 05:34:02;;;;;;;9.37;8.70;;;16.80;99.90;;;;;;6311439;22;20163;-79
2021/07/12 05:36:28;;;;;;;7.40;6.90;;;16.90;99.90;;;;;;6283810;22;20171;-79
2021/07/12 05:38:55;;;;;;;7.80;7.30;;;16.90;99.90;;;;;;6311721;22;20240;-79
2021/07/12 05:41:23;;;;;;;11.40;10.70;;;16.90;99.90;;;;;;6314053;22;20175;-79
2021/07/12 05:43:50;;;;;;;6.23;5.60;;;17.10;99.90;;;;;;6313228;22;20176;-79
2021/07/12 05:46:17;;;;;;;4.87;4.50;;;17.40;99.90;;;;;;6288694;22;20195;-79
2021/07/12 05:48:44;;;;;;;10.40;9.70;;;17.90;99.90;;;;;;6293595;22;20184;-80
2021/07/12 05:51:10;;;;;;;9.90;9.30;;;18.60;99.90;;;;;;6292231;22;20197;-80
2021/07/12 05:53:37;;;;;;;10.00;9.30;;;19.30;99.90;;;;;;6298901;22;20181;-78
2021/07/12 05:56:04;;;;;;;9.23;8.63;;;20.10;99.90;;;;;;6294580;22;20166;-80
2021/07/12 05:58:33;;;;;;;8.37;7.87;;;20.70;99.90;;;;;;6321543;22;20188;-80
2021/07/12 06:01:00;;;;;;;6.83;6.03;;;21.10;99.90;;;;;;6292116;22;20219;-82
2021/07/12 06:03:27;;;;;;;10.93;10.33;;;21.60;99.90;;;;;;6318893;22;20530;-81
2021/07/12 06:05:54;;;;;;;8.70;7.90;;;22.10;99.90;;;;;;6290718;22;20207;-80
2021/07/12 06:08:22;;;;;;;10.00;9.40;;;22.30;99.90;;;;;;6291907;22;20215;-80
2021/07/12 06:10:49;;;;;;;9.00;8.33;;;22.40;99.90;;;;;;6317832;22;20189;-80
2021/07/12 06:13:16;;;;;;;5.13;4.70;;;22.70;99.90;;;;;;6290274;22;20196;-82
2021/07/12 06:15:44;;;;;;;8.80;8.20;;;23.20;99.90;;;;;;6291127;22;20189;-80
2021/07/12 06:18:13;;;;;;;6.73;5.90;;;23.50;99.90;;;;;;6316781;22;20209;-78
2021/07/12 06:20:40;;;;;;;3.50;3.27;;;23.50;99.90;;;;;;6317556;22;20185;-79
2021/07/12 06:23:08;;;;;;;4.67;3.30;;;23.40;99.90;;;;;;6287956;22;20173;-79
2021/07/12 06:25:36;;;;;;;3.10;2.90;;;23.30;99.90;;;;;;6289359;22;20185;-79
2021/07/12 06:28:03;;;;;;;5.40;4.90;;;23.30;99.90;;;;;;6290244;22;20244;-78
2021/07/12 06:30:30;;;;;;;8.60;8.00;;;23.20;99.90;;;;;;6287656;22;20204;-79
2021/07/12 06:32:59;;;;;;;6.47;6.07;;;23.00;99.90;;;;;;6287895;22;20172;-81
2021/07/12 06:35:26;;;;;;;4.00;3.70;;;22.90;99.90;;;;;;6287857;22;20175;-79
2021/07/12 06:37:53;;;;;;;3.40;3.20;;;22.60;99.90;;;;;;6315258;22;20157;-80
2021/07/12 06:40:20;;;;;;;6.03;5.37;;;22.50;99.90;;;;;;6286975;22;20185;-77
2021/07/12 06:42:47;;;;;;;10.80;10.03;;;22.30;99.90;;;;;;6313989;22;20168;-80
2021/07/12 06:45:16;;;;;;;10.13;9.43;;;22.30;99.90;;;;;;6314179;22;20162;-79
2021/07/12 06:47:43;;;;;;;10.10;9.50;;;22.40;99.90;;;;;;6285170;22;20177;-78
2021/07/12 06:50:12;;;;;;;10.00;9.30;;;22.70;99.90;;;;;;6284105;22;20543;-81
2021/07/12 06:52:40;;;;;;;10.10;9.40;;;22.80;99.90;;;;;;6313586;22;20248;-80
2021/07/12 06:55:07;;;;;;;9.33;8.77;;;22.70;99.90;;;;;;6285056;22;20165;-80
2021/07/12 06:57:34;;;;;;;10.07;9.40;;;22.70;99.90;;;;;;6284487;22;20523;-81
2021/07/12 07:00:02;;;;;;;10.27;9.67;;;22.80;99.90;;;;;;6311778;22;20197;-81
2021/07/12 07:02:29;;;;;;;10.20;9.60;;;22.80;99.90;;;;;;6285077;22;20174;-80
2021/07/12 07:05:05;;;;;;;10.63;9.73;;;23.10;99.90;;;;;;6282984;22;20168;-82
2021/07/12 07:07:34;;;;;;;9.97;9.07;;;23.10;99.90;;;;;;6281891;22;20687;-82
2021/07/12 07:10:02;;;;;;;9.50;8.90;;;23.20;99.90;;;;;;6282238;22;20200;-80
2021/07/12 07:12:29;;;;;;;9.77;8.90;;;23.20;99.90;;;;;;6283277;22;20168;-81
2021/07/12 07:14:57;;;;;;;9.60;9.00;;;23.20;99.90;;;;;;6283680;22;20178;-80
2021/07/12 07:17:24;;;;;;;9.30;8.70;;;22.90;99.90;;;;;;6309100;22;20214;-80
2021/07/12 07:19:51;;;;;;;9.87;9.17;;;23.10;99.90;;;;;;6309015;22;20196;-81
2021/07/12 07:22:19;;;;;;;9.40;8.80;;;23.50;99.90;;;;;;6286977;22;20169;-82
2021/07/12 07:24:51;;;;;;;9.10;8.60;;;23.80;99.90;;;;;;6290280;22;20173;-78
2021/07/12 07:27:18;;;;;;;9.00;8.40;;;23.80;99.90;;;;;;6280982;22;20231;-78
2021/07/12 07:29:46;;;;;;;9.37;8.77;;;23.90;99.90;;;;;;6307764;22;20230;-80
2021/07/12 07:32:13;;;;;;;9.40;8.80;;;24.20;99.90;;;;;;6308195;22;20248;-79
2021/07/12 07:34:40;;;;;;;10.23;9.33;;;24.10;99.90;;;;;;6280150;22;20758;-79
2021/07/12 07:37:07;;;;;;;9.50;8.87;;;24.30;99.90;;;;;;6279927;22;20172;-78
2021/07/12 07:39:34;;;;;;;10.00;9.20;;;24.50;99.90;;;;;;6281465;22;20203;-76
2021/07/12 07:42:03;;;;;;;9.63;8.93;;;24.50;99.90;;;;;;6280082;22;20165;-77
2021/07/12 07:44:30;;;;;;;9.80;9.20;;;24.50;99.90;;;;;;6307519;22;20169;-77
2021/07/12 07:46:57;;;;;;;9.23;8.50;;;24.60;99.90;;;;;;6307338;22;20556;-77
2021/07/12 07:49:24;;;;;;;9.40;8.80;;;24.50;99.90;;;;;;6280033;22;20192;-77
2021/07/12 07:51:51;;;;;;;9.70;9.10;;;24.60;99.90;;;;;;6281070;22;20173;-77
2021/07/12 07:54:17;;;;;;;9.07;8.40;;;25.10;99.90;;;;;;6308164;22;20619;-77
2021/07/12 07:56:44;;;;;;;9.17;8.57;;;25.30;99.90;;;;;;6280061;22;20173;-77
2021/07/12 07:59:14;;;;;;;9.70;9.10;;;25.20;99.90;;;;;;6280376;22;20205;-79
2021/07/12 08:01:41;;;;;;;9.97;9.27;;;25.10;99.90;;;;;;6308472;22;20176;-79
2021/07/12 08:04:08;;;;;;;9.73;9.03;;;25.30;99.90;;;;;;6308287;22;20161;-79
2021/07/12 08:06:36;;;;;;;8.90;8.40;;;25.50;99.90;;;;;;6282179;22;20252;-79
2021/07/12 08:09:03;;;;;;;10.93;9.93;;;25.70;99.90;;;;;;6281326;22;20623;-79
2021/07/12 08:11:31;;;;;;;10.33;9.57;;;26.00;99.90;;;;;;6281329;22;20173;-80
2021/07/12 08:13:59;;;;;;;10.10;9.40;;;26.20;99.90;;;;;;6307920;22;20206;-79
2021/07/12 08:16:27;;;;;;;10.57;9.60;;;26.00;99.90;;;;;;6281445;22;20173;-79
2021/07/12 08:18:54;;;;;;;10.10;9.50;;;26.30;99.90;;;;;;6280521;22;20199;-79
2021/07/12 08:21:22;;;;;;;10.67;10.07;;;26.40;99.90;;;;;;6281087;22;20219;-79
2021/07/12 08:23:49;;;;;;;10.17;9.47;;;26.50;99.90;;;;;;6308956;22;20191;-79
2021/07/12 08:26:16;;;;;;;9.50;8.90;;;26.10;99.90;;;;;;6305233;22;20168;-79
2021/07/12 08:28:43;;;;;;;9.80;9.20;;;25.80;99.90;;;;;;6308228;22;20166;-79
2021/07/12 08:31:11;;;;;;;9.77;9.17;;;26.10;99.90;;;;;;6280879;22;20201;-79
2021/07/12 08:33:40;;;;;;;10.87;10.17;;;26.50;99.90;;;;;;6310005;22;20161;-79
2021/07/12 08:36:07;;;;;;;10.70;10.10;;;26.60;99.90;;;;;;6309586;22;20530;-79
2021/07/12 08:38:35;;;;;;;10.50;9.70;;;26.80;99.90;;;;;;6308637;22;20177;-79
2021/07/12 08:41:02;;;;;;;10.90;10.20;;;27.00;99.90;;;;;;6307752;22;20193;-80
2021/07/12 08:43:30;;;;;;;11.03;10.43;;;27.00;99.90;;;;;;6308564;22;20446;-80
2021/07/12 08:45:56;;;;;;;11.50;10.70;;;27.00;99.90;;;;;;6281591;22;20256;-79
2021/07/12 08:48:23;;;;;;;10.23;9.60;;;27.30;99.90;;;;;;6307383;22;20204;-81
2021/07/12 08:50:52;;;;;;;10.67;10.00;;;27.40;99.90;;;;;;6280299;22;20200;-78
2021/07/12 08:53:19;;;;;;;10.20;9.60;;;27.80;99.90;;;;;;6302184;22;20264;-79
2021/07/12 08:55:47;;;;;;;11.27;10.57;;;27.90;99.90;;;;;;6307998;22;20252;-78
2021/07/12 08:58:19;;;;;;;11.37;10.67;;;28.10;99.90;;;;;;6306644;22;20679;-79
2021/07/12 09:00:50;;;;;;;7.63;7.23;;;28.50;99.90;;;;;;6279843;22;20185;-79
2021/07/12 09:03:26;;;;;;;10.60;10.00;;;28.90;99.90;;;;;;6306707;22;20161;-79
2021/07/12 09:06:05;;;;;;;10.13;9.53;;;28.20;99.90;;;;;;6283168;22;20165;-79
2021/07/12 09:08:45;;;;;;;10.23;9.63;;;28.10;99.90;;;;;;6283121;22;20172;-79
2021/07/12 09:11:15;;;;;;;10.53;9.93;;;28.20;99.90;;;;;;6284460;22;20189;-79
2021/07/12 09:13:44;;;;;;;10.30;9.70;;;28.40;99.90;;;;;;6285693;22;20252;-79
2021/07/12 09:16:38;;;;;;;10.23;9.50;;;28.50;99.90;;;;;;6284196;22;20169;-79
2021/07/12 09:19:08;;;;;;;10.13;9.53;;;28.60;99.90;;;;;;6311742;22;20215;-81
2021/07/12 09:21:39;;;;;;;10.30;9.70;;;29.00;99.90;;;;;;6285375;22;20196;-79
2021/07/12 09:24:15;;;;;;;10.43;9.83;;;29.10;99.90;;;;;;6285189;22;20181;-79
2021/07/12 09:26:42;;;;;;;10.20;9.60;;;29.20;99.90;;;;;;6285558;22;20630;-77
2021/07/12 09:29:15;;;;;;;8.83;8.33;;;29.40;99.90;;;;;;6315498;22;20222;-78
2021/07/12 09:31:42;;;;;;;9.13;8.63;;;29.40;99.90;;;;;;6308525;22;20181;-78
2021/07/12 09:34:09;;;;;;;7.37;6.97;;;29.70;99.90;;;;;;6282081;22;20177;-77
2021/07/12 09:36:37;;;;;;;10.00;9.40;;;29.60;99.90;;;;;;6310795;22;20161;-77
2021/07/12 09:39:25;;;;;;;9.80;9.20;;;29.40;99.90;;;;;;6284056;22;20669;-78
2021/07/12 09:41:54;;;;;;;10.00;9.40;;;29.60;99.90;;;;;;6307940;22;20165;-80
2021/07/12 09:44:22;;;;;;;10.00;9.40;;;29.30;99.90;;;;;;6307326;22;20624;-79
2021/07/12 09:46:50;;;;;;;9.40;8.90;;;29.10;99.90;;;;;;6306450;22;20497;-80
2021/07/12 10:28:06;;;;;;;10.60;9.70;;;28.80;99.90;;;;;;6224608;22;20215;-81
2021/07/12 10:38:40;;;;;;;9.80;9.20;;;28.90;99.90;;;;;;6165843;23;20178;-82
2021/07/12 10:42:07;;;;;;;9.73;9.13;;;29.30;99.90;;;;;;6182509;23;20168;-81
2021/07/12 11:50:21;;;;;;;8.63;8.13;;;28.90;99.90;;;;;;6235720;22;20819;-82
2021/07/12 11:53:16;;;;;;;8.70;8.20;;;29.10;99.90;;;;;;6252965;22;20180;-81
2021/07/12 12:34:44;;;;;;;8.27;7.70;;;28.50;99.90;;;;;;6303147;22;20729;-80
2021/07/12 12:47:34;;;;;;;7.67;7.17;;;28.80;99.90;;;;;;6278016;22;20662;-81
2021/07/12 12:50:22;;;;;;;7.67;7.17;;;28.90;99.90;;;;;;6308465;22;20234;-82
2021/07/12 12:53:05;;;;;;;8.20;7.70;;;28.80;99.90;;;;;;6307966;22;20207;-81
2021/07/12 12:58:47;;;;;;;8.00;7.50;;;28.40;99.90;;;;;;6277431;22;20650;-80
2021/07/12 13:05:08;;;;;;;9.00;8.40;;;28.30;99.90;;;;;;6118251;23;20630;-80
2021/07/12 13:07:45;;;;;;;8.93;8.33;;;28.40;99.90;;;;;;6156691;23;20223;-81
2021/07/12 13:10:46;;;;;;;9.03;8.47;;;28.60;99.90;;;;;;6158167;23;20278;-82
2021/07/12 13:13:38;;;;;;;9.00;8.50;;;28.90;99.90;;;;;;6283072;22;20263;-80
2021/07/12 13:16:32;;;;;;;8.70;8.20;;;28.90;99.90;;;;;;6275350;22;20204;-81
2021/07/12 13:18:58;;;;;;;8.77;8.27;;;28.80;99.90;;;;;;6307007;22;20200;-80
2021/07/12 13:21:48;;;;;;;8.80;8.30;;;28.70;99.90;;;;;;6305752;22;20185;-81
2021/07/12 13:24:53;;;;;;;9.00;8.50;;;28.60;99.90;;;;;;6305208;22;20176;-82
2021/07/12 13:27:34;;;;;;;8.60;8.10;;;28.70;99.90;;;;;;6306213;22;20164;-81
2021/07/12 13:30:29;;;;;;;8.90;8.40;;;28.40;99.90;;;;;;6280922;22;20664;-81
2021/07/12 13:45:06;;;;;;;8.40;7.90;;;28.30;99.90;;;;;;6183041;23;20187;-81
2021/07/12 13:48:26;;;;;;;8.40;7.80;;;28.10;99.90;;;;;;6136436;23;20176;-81
2021/07/12 14:02:57;;;;;;;8.80;8.03;;;27.70;99.90;;;;;;5978970;23;20190;-80
2021/07/12 14:05:25;;;;;;;8.30;7.80;;;27.60;99.90;;;;;;6059746;23;20273;-84
2021/07/12 14:08:02;;;;;;;8.77;8.17;;;27.50;99.90;;;;;;6250475;22;20193;-80
2021/07/12 14:10:31;;;;;;;8.90;8.30;;;27.30;99.90;;;;;;6307765;22;20149;-80
2021/07/12 14:16:07;;;;;;;8.77;8.20;;;27.40;99.90;;;;;;6251291;22;20165;-78
2021/07/12 14:18:35;;;;;;;8.10;7.60;;;27.50;99.90;;;;;;6316229;22;20215;-79
2021/07/12 14:21:06;;;;;;;7.90;7.40;;;27.70;99.90;;;;;;6307685;22;20658;-80
2021/07/12 14:23:36;;;;;;;8.03;7.53;;;27.90;99.90;;;;;;6279146;22;20241;-79
2021/07/12 14:26:13;;;;;;;8.20;7.70;;;28.20;99.90;;;;;;6279970;22;20169;-80
2021/07/12 14:28:43;;;;;;;7.97;7.37;;;28.40;99.90;;;;;;6305406;22;20239;-80
2021/07/12 14:31:25;;;;;;;9.03;8.20;;;28.50;99.90;;;;;;6309731;22;20238;-81
2021/07/12 14:34:39;;;;;;;9.90;9.20;;;28.20;99.90;;;;;;6295770;22;20186;-80
2021/07/12 14:37:22;;;;;;;8.53;7.97;;;27.90;99.90;;;;;;6307949;22;20274;-81
2021/07/12 14:39:59;;;;;;;8.80;8.20;;;27.80;99.90;;;;;;6284004;22;20226;-80
2021/07/12 14:42:26;;;;;;;8.20;7.70;;;27.70;99.90;;;;;;6312806;22;20192;-80
2021/07/12 14:44:55;;;;;;;8.20;7.70;;;27.70;99.90;;;;;;6313766;22;20215;-81
2021/07/12 14:47:33;;;;;;;8.00;7.50;;;27.60;99.90;;;;;;6284733;22;20169;-81
2021/07/12 14:50:01;;;;;;;7.87;7.37;;;27.60;99.90;;;;;;6284918;22;20190;-81
2021/07/12 14:52:28;;;;;;;8.10;7.50;;;27.40;99.90;;;;;;6283773;22;20169;-80
2021/07/12 14:54:55;;;;;;;8.17;7.67;;;27.50;99.90;;;;;;6311927;22;20237;-80
2021/07/12 14:57:22;;;;;;;7.87;7.37;;;27.50;99.90;;;;;;6311542;22;20172;-80
2021/07/12 15:00:36;;;;;;;7.57;7.10;;;27.70;99.90;;;;;;6283978;22;20249;-80
2021/07/12 15:03:45;;;;;;;7.87;7.37;;;27.70;99.90;;;;;;6183122;22;20550;-81
2021/07/12 15:06:23;;;;;;;7.77;7.20;;;27.80;99.90;;;;;;6308928;22;20153;-78
2021/07/12 15:09:30;;;;;;;7.70;7.30;;;28.00;99.90;;;;;;6299825;22;20209;-78
2021/07/12 15:12:30;;;;;;;7.83;7.33;;;28.00;99.90;;;;;;6274306;22;20177;-77
2021/07/12 15:15:17;;;;;;;8.20;7.70;;;28.00;99.90;;;;;;6278109;22;20173;-80
2021/07/12 15:17:58;;;;;;;7.80;7.30;;;28.00;99.90;;;;;;6277447;22;20154;-78
2021/07/12 15:20:40;;;;;;;7.33;6.93;;;27.80;99.90;;;;;;6273960;22;20189;-78
2021/07/12 15:23:52;;;;;;;7.70;7.10;;;27.80;99.90;;;;;;6273231;22;20216;-79
2021/07/12 15:26:57;;;;;;;7.40;6.97;;;27.80;99.90;;;;;;6246565;23;20632;-78
2021/07/12 15:29:28;;;;;;;7.70;7.20;;;27.70;99.90;;;;;;6246253;22;20195;-78
2021/07/12 15:32:15;;;;;;;7.20;6.80;;;27.90;99.90;;;;;;6272217;22;20498;-79
2021/07/12 15:35:10;;;;;;;8.60;8.10;;;28.00;99.90;;;;;;6242240;22;20177;-77
2021/07/12 15:44:07;;;;;;;8.20;7.70;;;28.00;99.90;;;;;;6279204;22;20169;-77
2021/07/12 15:49:55;;;;;;;8.50;7.90;;;28.00;99.90;;;;;;6311031;22;20180;-77
2021/07/12 15:56:04;;;;;;;7.83;7.33;;;28.00;99.90;;;;;;6226175;22;20291;-78
2021/07/12 16:02:08;;;;;;;7.90;7.40;;;27.90;99.90;;;;;;6296472;22;20200;-78
2021/07/12 16:11:19;;;;;;;8.23;7.70;;;27.70;99.90;;;;;;6218198;23;20249;-78
2021/07/12 16:14:11;;;;;;;7.70;7.20;;;27.70;99.90;;;;;;6071330;23;20181;-78
2021/07/12 16:34:30;;;;;;;7.77;7.27;;;27.70;99.90;;;;;;6101797;23;20178;-80
2021/07/12 16:37:14;;;;;;;7.70;7.20;;;27.60;99.90;;;;;;6214601;23;20605;-77
2021/07/12 16:43:19;;;;;;;7.43;6.93;;;27.60;99.90;;;;;;6241894;23;20182;-78
2021/07/12 16:46:14;;;;;;;7.67;7.17;;;27.40;99.90;;;;;;6338185;22;20561;-77
2021/07/12 16:49:01;;;;;;;7.50;7.00;;;27.30;99.90;;;;;;6323749;22;20193;-78
2021/07/12 16:51:32;;;;;;;7.57;7.03;;;27.20;99.90;;;;;;6306436;22;20173;-77
2021/07/12 16:57:11;;;;;;;7.83;7.30;;;27.00;99.90;;;;;;6278851;22;20169;-77
2021/07/12 16:59:48;;;;;;;7.70;7.10;;;26.80;99.90;;;;;;6271159;22;20260;-78
2021/07/12 17:02:37;;;;;;;7.00;6.40;;;26.80;99.90;;;;;;6300031;22;20193;-77
2021/07/12 17:05:18;;;;;;;7.20;6.70;;;26.80;99.90;;;;;;6275032;22;20170;-77
2021/07/12 17:10:49;;;;;;;7.23;6.73;;;26.80;99.90;;;;;;6306356;22;20227;-77
2021/07/12 17:13:18;;;;;;;7.53;6.93;;;26.70;99.90;;;;;;6305092;22;20161;-79
2021/07/12 17:15:55;;;;;;;7.17;6.70;;;26.60;99.90;;;;;;6279629;22;20204;-78
2021/07/12 17:18:29;;;;;;;7.20;6.70;;;26.50;99.90;;;;;;6306933;22;20761;-76
2021/07/12 17:21:37;;;;;;;7.57;6.90;;;26.40;99.90;;;;;;6281075;22;20191;-76
2021/07/12 17:24:10;;;;;;;8.17;6.90;;;26.30;99.90;;;;;;6306538;22;20169;-77
2021/07/12 17:27:05;;;;;;;7.60;7.10;;;26.20;99.90;;;;;;6306910;22;20664;-77
2021/07/12 17:36:30;;;;;;;7.03;6.53;;;26.10;99.90;;;;;;6279486;22;20207;-77
2021/07/12 17:39:34;;;;;;;6.80;6.40;;;26.00;99.90;;;;;;6221586;22;20856;-76
2021/07/12 17:42:14;;;;;;;7.77;7.27;;;26.00;99.90;;;;;;6307160;22;20189;-77
2021/07/12 17:44:55;;;;;;;6.73;6.23;;;25.90;99.90;;;;;;6308781;22;20156;-76
2021/07/12 17:47:53;;;;;;;7.30;6.80;;;25.90;99.90;;;;;;6280999;22;20168;-76
2021/07/12 17:50:38;;;;;;;6.93;6.33;;;25.80;99.90;;;;;;6308996;22;20244;-78
2021/07/12 17:53:07;;;;;;;4.93;4.57;;;25.70;99.90;;;;;;6280495;22;20181;-77
2021/07/12 17:58:24;;;;;;;7.00;6.50;;;25.70;99.90;;;;;;6278237;22;20214;-76
2021/07/12 18:01:08;;;;;;;7.30;6.80;;;25.60;99.90;;;;;;6280643;22;20186;-77
2021/07/12 18:03:55;;;;;;;6.50;6.10;;;25.50;99.90;;;;;;6306931;22;20609;-77